createdAt,value
2018-11-14T00:00:45.314Z,0.00
2018-11-14T00:01:45.306Z,0.00
2018-11-14T00:02:45.301Z,0.00
2018-11-14T00:03:45.288Z,0.00
2018-11-14T00:04:45.278Z,0.00
2018-11-14T00:05:45.273Z,0.00
2018-11-14T00:06:45.263Z,0.00
2018-11-14T00:07:45.250Z,0.00
2018-11-14T00:08:45.251Z,0.00
2018-11-14T00:09:45.308Z,0.00
2018-11-14T00:10:45.220Z,0.00
2018-11-14T00:11:45.231Z,0.00
2018-11-14T00:12:45.211Z,0.00
2018-11-14T00:13:45.200Z,0.00
2018-11-14T00:14:45.192Z,0.00
2018-11-14T00:15:45.183Z,0.00
2018-11-14T00:16:45.173Z,0.00
2018-11-14T00:17:45.191Z,0.00
2018-11-14T00:18:45.157Z,0.00
2018-11-14T00:19:45.145Z,0.00
2018-11-14T00:20:45.137Z,0.00
2018-11-14T00:21:45.456Z,0.00
2018-11-14T00:22:45.124Z,0.00
2018-11-14T00:23:45.117Z,0.00
2018-11-14T00:24:45.155Z,0.00
2018-11-14T00:25:45.103Z,0.00
2018-11-14T00:26:45.130Z,0.00
2018-11-14T00:27:45.079Z,0.00
2018-11-14T00:28:45.068Z,0.00
2018-11-14T00:29:45.060Z,0.00
2018-11-14T00:30:45.052Z,0.00
2018-11-14T00:31:45.041Z,0.00
2018-11-14T00:32:45.072Z,0.00
2018-11-14T00:33:45.090Z,0.00
2018-11-14T00:34:45.070Z,0.00
2018-11-14T00:35:45.154Z,0.00
2018-11-14T00:36:45.000Z,0.00
2018-11-14T00:37:44.988Z,0.00
2018-11-14T00:38:44.987Z,0.00
2018-11-14T00:39:44.976Z,0.00
2018-11-14T00:40:44.966Z,0.00
2018-11-14T00:41:44.956Z,0.00
2018-11-14T00:42:44.968Z,0.00
2018-11-14T00:43:44.949Z,0.00
2018-11-14T00:44:44.930Z,0.00
2018-11-14T00:45:44.919Z,0.00
2018-11-14T00:46:44.914Z,0.00
2018-11-14T00:47:44.905Z,0.00
2018-11-14T00:48:44.895Z,0.00
2018-11-14T00:49:44.887Z,0.00
2018-11-14T00:50:44.878Z,0.00
2018-11-14T00:51:44.868Z,0.00
2018-11-14T00:52:44.859Z,0.00
2018-11-14T00:53:44.851Z,0.00
2018-11-14T00:54:44.852Z,0.00
2018-11-14T00:55:44.834Z,0.00
2018-11-14T00:56:44.825Z,0.00
2018-11-14T00:57:44.818Z,0.00
2018-11-14T00:58:44.830Z,0.00
2018-11-14T00:59:44.799Z,0.00
2018-11-14T01:00:44.785Z,0.00
2018-11-14T01:01:44.950Z,0.00
2018-11-14T01:02:44.775Z,0.00
2018-11-14T01:03:44.765Z,0.00
2018-11-14T01:04:44.761Z,0.00
2018-11-14T01:05:44.746Z,0.00
2018-11-14T01:06:44.740Z,0.00
2018-11-14T01:07:44.730Z,0.00
2018-11-14T01:08:44.721Z,0.00
2018-11-14T01:09:44.707Z,0.00
2018-11-14T01:10:44.705Z,0.00
2018-11-14T01:11:44.692Z,0.00
2018-11-14T01:12:44.683Z,0.00
2018-11-14T01:13:44.677Z,0.00
2018-11-14T01:14:44.674Z,0.00
2018-11-14T01:15:44.690Z,0.00
2018-11-14T01:16:44.652Z,0.00
2018-11-14T01:17:44.643Z,0.00
2018-11-14T01:18:44.653Z,0.00
2018-11-14T01:19:44.624Z,0.00
2018-11-14T01:20:44.616Z,0.00
2018-11-14T01:21:44.686Z,0.00
2018-11-14T01:22:44.599Z,0.00
2018-11-14T01:23:44.588Z,0.00
2018-11-14T01:24:44.581Z,0.00
2018-11-14T01:25:44.571Z,0.00
2018-11-14T01:26:44.559Z,0.00
2018-11-14T01:27:44.554Z,0.00
2018-11-14T01:28:44.548Z,0.00
2018-11-14T01:29:44.545Z,0.00
2018-11-14T01:30:44.531Z,0.00
2018-11-14T01:31:44.518Z,0.00
2018-11-14T01:32:44.529Z,0.00
2018-11-14T01:33:44.491Z,0.00
2018-11-14T01:34:44.492Z,0.00
2018-11-14T01:35:44.493Z,0.00
2018-11-14T01:36:44.473Z,0.00
2018-11-14T01:37:44.456Z,0.00
2018-11-14T01:38:44.464Z,0.00
2018-11-14T01:39:44.444Z,0.00
2018-11-14T01:40:44.447Z,0.00
2018-11-14T01:41:44.428Z,0.00
2018-11-14T01:42:44.419Z,0.00
2018-11-14T01:43:44.414Z,0.00
2018-11-14T01:44:44.407Z,0.00
2018-11-14T01:45:44.392Z,0.00
2018-11-14T01:46:44.383Z,0.00
2018-11-14T01:47:44.373Z,0.00
2018-11-14T01:48:44.369Z,0.00
2018-11-14T01:49:44.356Z,0.00
2018-11-14T01:50:44.346Z,0.00
2018-11-14T01:51:44.339Z,0.00
2018-11-14T01:52:44.336Z,0.00
2018-11-14T01:53:44.316Z,0.00
2018-11-14T01:54:44.307Z,0.00
2018-11-14T01:55:44.300Z,0.00
2018-11-14T01:56:44.282Z,0.00
2018-11-14T01:57:44.285Z,0.00
2018-11-14T01:58:44.276Z,0.00
2018-11-14T01:59:44.266Z,0.00
2018-11-14T02:00:44.256Z,0.00
2018-11-14T02:01:44.261Z,0.00
2018-11-14T02:02:44.240Z,0.00
2018-11-14T02:03:44.227Z,0.00
2018-11-14T02:04:44.217Z,0.00
2018-11-14T02:05:44.210Z,0.00
2018-11-14T02:06:44.198Z,0.00
2018-11-14T02:07:44.194Z,0.00
2018-11-14T02:08:44.184Z,0.00
2018-11-14T02:09:44.174Z,0.00
2018-11-14T02:10:44.168Z,0.00
2018-11-14T02:11:44.154Z,0.00
2018-11-14T02:12:44.145Z,0.00
2018-11-14T02:13:44.136Z,0.00
2018-11-14T02:14:44.129Z,0.00
2018-11-14T02:15:44.117Z,0.00
2018-11-14T02:16:44.113Z,0.00
2018-11-14T02:17:44.099Z,0.00
2018-11-14T02:18:44.092Z,0.00
2018-11-14T02:19:44.079Z,0.00
2018-11-14T02:20:44.072Z,0.00
2018-11-14T02:21:44.081Z,0.00
2018-11-14T02:22:44.056Z,0.00
2018-11-14T02:23:44.049Z,0.00
2018-11-14T02:24:44.045Z,0.00
2018-11-14T02:25:44.017Z,0.00
2018-11-14T02:26:44.019Z,0.00
2018-11-14T02:27:44.010Z,0.00
2018-11-14T02:28:44.001Z,0.00
2018-11-14T02:29:43.989Z,0.00
2018-11-14T02:30:43.992Z,0.00
2018-11-14T02:31:43.972Z,0.00
2018-11-14T02:32:43.965Z,0.00
2018-11-14T02:33:43.951Z,0.00
2018-11-14T02:34:43.947Z,0.00
2018-11-14T02:35:43.942Z,0.00
2018-11-14T02:36:43.929Z,0.00
2018-11-14T02:37:43.932Z,0.00
2018-11-14T02:38:43.911Z,0.00
2018-11-14T02:39:43.893Z,0.00
2018-11-14T02:40:43.891Z,0.00
2018-11-14T02:41:43.890Z,0.00
2018-11-14T02:42:43.877Z,0.00
2018-11-14T02:43:43.863Z,0.00
2018-11-14T02:44:43.859Z,0.00
2018-11-14T02:45:43.846Z,0.00
2018-11-14T02:46:43.834Z,0.00
2018-11-14T02:47:43.837Z,0.00
2018-11-14T02:48:43.817Z,0.00
2018-11-14T02:49:43.808Z,0.00
2018-11-14T02:50:43.801Z,0.00
2018-11-14T02:51:43.793Z,0.00
2018-11-14T02:52:43.788Z,0.00
2018-11-14T02:53:43.770Z,0.00
2018-11-14T02:54:43.761Z,0.00
2018-11-14T02:55:43.753Z,0.00
2018-11-14T02:56:43.742Z,0.00
2018-11-14T02:57:43.743Z,0.00
2018-11-14T02:58:43.722Z,0.00
2018-11-14T02:59:43.719Z,0.00
2018-11-14T03:00:43.708Z,0.00
2018-11-14T03:01:43.698Z,0.00
2018-11-14T03:02:43.691Z,0.00
2018-11-14T03:03:43.685Z,0.00
2018-11-14T03:04:43.669Z,0.00
2018-11-14T03:05:43.662Z,0.00
2018-11-14T03:06:43.654Z,0.00
2018-11-14T03:07:43.647Z,0.00
2018-11-14T03:08:43.634Z,0.00
2018-11-14T03:09:43.621Z,0.00
2018-11-14T03:10:43.614Z,0.00
2018-11-14T03:11:43.603Z,0.00
2018-11-14T03:12:43.601Z,0.00
2018-11-14T03:13:43.606Z,0.00
2018-11-14T03:14:43.580Z,0.00
2018-11-14T03:15:43.566Z,0.00
2018-11-14T03:16:43.555Z,0.00
2018-11-14T03:17:43.541Z,0.00
2018-11-14T03:18:43.538Z,0.00
2018-11-14T03:19:43.528Z,0.00
2018-11-14T03:20:43.535Z,0.00
2018-11-14T03:21:43.510Z,0.00
2018-11-14T03:22:43.504Z,0.00
2018-11-14T03:23:43.485Z,0.00
2018-11-14T03:24:43.483Z,0.00
2018-11-14T03:25:43.472Z,0.00
2018-11-14T03:26:43.455Z,0.00
2018-11-14T03:27:43.454Z,0.00
2018-11-14T03:28:43.446Z,0.00
2018-11-14T03:29:43.458Z,0.00
2018-11-14T03:30:43.431Z,0.00
2018-11-14T03:31:43.417Z,0.00
2018-11-14T03:32:43.407Z,0.00
2018-11-14T03:33:43.400Z,0.00
2018-11-14T03:34:43.388Z,0.00
2018-11-14T03:35:43.388Z,0.00
2018-11-14T03:36:43.370Z,0.00
2018-11-14T03:37:43.362Z,0.00
2018-11-14T03:38:43.354Z,0.00
2018-11-14T03:39:43.340Z,0.00
2018-11-14T03:40:43.330Z,0.00
2018-11-14T03:41:43.321Z,0.00
2018-11-14T03:42:43.313Z,0.00
2018-11-14T03:43:43.303Z,0.00
2018-11-14T03:44:43.283Z,0.00
2018-11-14T03:45:43.289Z,0.00
2018-11-14T03:46:43.275Z,0.00
2018-11-14T03:47:43.283Z,0.00
2018-11-14T03:48:43.254Z,0.00
2018-11-14T03:49:43.246Z,0.00
2018-11-14T03:50:43.238Z,0.00
2018-11-14T03:51:43.227Z,0.00
2018-11-14T03:52:43.226Z,0.00
2018-11-14T03:53:43.211Z,0.00
2018-11-14T03:54:43.190Z,0.00
2018-11-14T03:55:43.190Z,0.00
2018-11-14T03:56:43.182Z,0.00
2018-11-14T03:57:43.183Z,0.00
2018-11-14T03:58:43.164Z,0.00
2018-11-14T03:59:43.172Z,0.00
2018-11-14T04:00:43.167Z,0.00
2018-11-14T04:01:43.136Z,0.00
2018-11-14T04:02:43.126Z,0.00
2018-11-14T04:03:43.114Z,0.00
2018-11-14T04:04:43.107Z,0.00
2018-11-14T04:05:43.097Z,0.00
2018-11-14T04:06:43.113Z,0.00
2018-11-14T04:07:43.078Z,0.00
2018-11-14T04:08:43.070Z,0.00
2018-11-14T04:09:43.059Z,0.00
2018-11-14T04:10:43.050Z,0.00
2018-11-14T04:11:43.041Z,0.00
2018-11-14T04:12:43.030Z,0.00
2018-11-14T04:13:43.022Z,0.00
2018-11-14T04:14:43.013Z,0.00
2018-11-14T04:15:43.002Z,0.00
2018-11-14T04:16:42.992Z,0.00
2018-11-14T04:17:42.984Z,0.00
2018-11-14T04:18:42.974Z,0.00
2018-11-14T04:19:42.979Z,0.00
2018-11-14T04:20:42.956Z,0.00
2018-11-14T04:21:42.945Z,0.00
2018-11-14T04:22:42.934Z,0.00
2018-11-14T04:23:42.916Z,0.00
2018-11-14T04:24:42.916Z,0.00
2018-11-14T04:25:42.906Z,0.00
2018-11-14T04:26:42.919Z,0.00
2018-11-14T04:27:42.887Z,0.00
2018-11-14T04:28:42.878Z,0.00
2018-11-14T04:29:42.868Z,0.00
2018-11-14T04:30:42.866Z,0.00
2018-11-14T04:31:42.850Z,0.00
2018-11-14T04:32:42.840Z,0.00
2018-11-14T04:33:42.830Z,0.00
2018-11-14T04:34:42.821Z,0.00
2018-11-14T04:35:42.832Z,0.00
2018-11-14T04:36:42.791Z,0.00
2018-11-14T04:37:42.797Z,0.00
2018-11-14T04:38:42.782Z,0.00
2018-11-14T04:39:42.777Z,0.00
2018-11-14T04:40:42.774Z,0.00
2018-11-14T04:41:42.755Z,0.00
2018-11-14T04:42:42.733Z,0.00
2018-11-14T04:43:42.738Z,0.00
2018-11-14T04:44:42.732Z,0.00
2018-11-14T04:45:42.717Z,0.00
2018-11-14T04:46:42.706Z,0.00
2018-11-14T04:47:42.714Z,0.00
2018-11-14T04:48:42.690Z,0.00
2018-11-14T04:49:42.678Z,0.00
2018-11-14T04:50:42.668Z,0.00
2018-11-14T04:51:42.661Z,0.00
2018-11-14T04:52:42.650Z,0.00
2018-11-14T04:53:42.636Z,0.00
2018-11-14T04:54:42.632Z,0.00
2018-11-14T04:55:42.620Z,0.00
2018-11-14T04:56:42.609Z,0.00
2018-11-14T04:57:42.602Z,0.00
2018-11-14T04:58:42.590Z,0.00
2018-11-14T04:59:42.582Z,0.00
2018-11-14T05:00:42.572Z,0.00
2018-11-14T05:01:42.564Z,0.00
2018-11-14T05:02:42.643Z,0.00
2018-11-14T05:03:42.546Z,0.00
2018-11-14T05:04:42.536Z,0.00
2018-11-14T05:05:42.523Z,0.00
2018-11-14T05:06:42.517Z,0.00
2018-11-14T05:07:42.505Z,0.00
2018-11-14T05:08:42.495Z,0.00
2018-11-14T05:09:42.485Z,0.00
2018-11-14T05:10:42.476Z,0.00
2018-11-14T05:11:42.491Z,0.00
2018-11-14T05:12:42.488Z,0.00
2018-11-14T05:13:42.446Z,0.00
2018-11-14T05:14:42.444Z,0.00
2018-11-14T05:15:42.423Z,0.00
2018-11-14T05:16:42.417Z,0.00
2018-11-14T05:17:42.409Z,0.00
2018-11-14T05:18:42.395Z,0.00
2018-11-14T05:19:42.388Z,0.00
2018-11-14T05:20:42.380Z,0.00
2018-11-14T05:21:42.359Z,0.00
2018-11-14T05:22:42.362Z,0.00
2018-11-14T05:23:42.353Z,0.00
2018-11-14T05:24:42.368Z,0.00
2018-11-14T05:25:42.339Z,0.00
2018-11-14T05:26:42.316Z,0.00
2018-11-14T05:27:42.302Z,0.00
2018-11-14T05:28:42.321Z,0.00
2018-11-14T05:29:42.293Z,0.00
2018-11-14T05:30:42.284Z,0.00
2018-11-14T05:31:42.279Z,0.00
2018-11-14T05:32:42.287Z,0.00
2018-11-14T05:33:42.257Z,0.00
2018-11-14T05:34:42.245Z,0.00
2018-11-14T05:35:42.232Z,0.00
2018-11-14T05:36:42.225Z,0.00
2018-11-14T05:37:42.215Z,0.00
2018-11-14T05:38:42.209Z,0.00
2018-11-14T05:39:42.374Z,0.00
2018-11-14T05:40:42.177Z,0.00
2018-11-14T05:41:42.170Z,0.00
2018-11-14T05:42:42.159Z,0.00
2018-11-14T05:43:42.178Z,0.00
2018-11-14T05:44:42.147Z,0.00
2018-11-14T05:45:42.141Z,0.00
2018-11-14T05:46:42.124Z,0.00
2018-11-14T05:47:42.120Z,0.00
2018-11-14T05:48:42.107Z,0.00
2018-11-14T05:49:42.103Z,0.00
2018-11-14T05:50:42.090Z,4.00
2018-11-14T05:51:42.092Z,0.00
2018-11-14T05:52:44.990Z,0.00
2018-11-14T05:53:42.166Z,4.00
2018-11-14T05:54:42.061Z,4.00
2018-11-14T05:55:42.043Z,4.00
2018-11-14T05:56:42.031Z,4.00
2018-11-14T05:57:42.025Z,4.00
2018-11-14T05:58:42.011Z,8.00
2018-11-14T05:59:42.007Z,8.00
2018-11-14T06:00:41.995Z,12.00
2018-11-14T06:01:41.982Z,12.00
2018-11-14T06:02:41.970Z,16.00
2018-11-14T06:03:41.967Z,16.00
2018-11-14T06:04:41.955Z,20.00
2018-11-14T06:05:41.947Z,24.00
2018-11-14T06:06:41.934Z,32.00
2018-11-14T06:07:42.008Z,40.00
2018-11-14T06:08:41.914Z,44.00
2018-11-14T06:09:41.905Z,52.00
2018-11-14T06:10:41.903Z,60.00
2018-11-14T06:11:41.889Z,72.00
2018-11-14T06:12:41.878Z,84.00
2018-11-14T06:13:41.866Z,100.00
2018-11-14T06:14:41.862Z,112.00
2018-11-14T06:15:41.863Z,128.00
2018-11-14T06:16:41.839Z,144.00
2018-11-14T06:17:41.835Z,164.00
2018-11-14T06:18:41.818Z,184.00
2018-11-14T06:19:41.799Z,208.00
2018-11-14T06:20:41.795Z,232.00
2018-11-14T06:21:41.796Z,260.00
2018-11-14T06:22:41.807Z,292.00
2018-11-14T06:23:41.826Z,324.00
2018-11-14T06:24:41.757Z,356.00
2018-11-14T06:25:41.743Z,392.00
2018-11-14T06:26:41.742Z,436.00
2018-11-14T06:27:41.723Z,472.00
2018-11-14T06:28:41.728Z,516.00
2018-11-14T06:29:41.751Z,556.00
2018-11-14T06:30:41.702Z,604.00
2018-11-14T06:31:41.711Z,648.00
2018-11-14T06:32:41.682Z,700.00
2018-11-14T06:33:41.674Z,760.00
2018-11-14T06:34:41.663Z,816.00
2018-11-14T06:35:41.653Z,900.00
2018-11-14T06:36:41.642Z,940.00
2018-11-14T06:37:41.634Z,1056.00
2018-11-14T06:38:41.623Z,1104.00
2018-11-14T06:39:41.610Z,1152.00
2018-11-14T06:40:41.604Z,1312.00
2018-11-14T06:41:41.696Z,1356.00
2018-11-14T06:42:41.585Z,1396.00
2018-11-14T06:43:41.576Z,1496.00
2018-11-14T06:44:41.565Z,1492.00
2018-11-14T06:45:41.551Z,1444.00
2018-11-14T06:46:41.546Z,1484.00
2018-11-14T06:47:41.539Z,1524.00
2018-11-14T06:48:41.545Z,1596.00
2018-11-14T06:49:41.519Z,1652.00
2018-11-14T06:50:41.511Z,1724.00
2018-11-14T06:51:41.499Z,1880.00
2018-11-14T06:52:41.491Z,1944.00
2018-11-14T06:53:41.482Z,2124.00
2018-11-14T06:54:41.473Z,2212.00
2018-11-14T06:55:41.464Z,2252.00
2018-11-14T06:56:41.456Z,2300.00
2018-11-14T06:57:41.449Z,2524.00
2018-11-14T06:58:41.503Z,2476.00
2018-11-14T06:59:41.431Z,2488.00
2018-11-14T07:00:41.414Z,2604.00
2018-11-14T07:01:41.409Z,3000.00
2018-11-14T07:02:41.398Z,2708.00
2018-11-14T07:03:41.389Z,3112.00
2018-11-14T07:04:41.383Z,2816.00
2018-11-14T07:05:41.409Z,2812.00
2018-11-14T07:06:41.367Z,3212.00
2018-11-14T07:07:41.355Z,3412.00
2018-11-14T07:08:41.370Z,3356.00
2018-11-14T07:09:41.335Z,3144.00
2018-11-14T07:10:41.329Z,2964.00
2018-11-14T07:11:41.319Z,3180.00
2018-11-14T07:12:41.306Z,3120.00
2018-11-14T07:13:41.301Z,3204.00
2018-11-14T07:14:41.290Z,3436.00
2018-11-14T07:15:41.283Z,3444.00
2018-11-14T07:16:41.275Z,3520.00
2018-11-14T07:17:41.284Z,3480.00
2018-11-14T07:18:41.259Z,3476.00
2018-11-14T07:19:41.250Z,3704.00
2018-11-14T07:20:41.238Z,3692.00
2018-11-14T07:21:41.232Z,4136.00
2018-11-14T07:22:41.223Z,3880.00
2018-11-14T07:23:41.242Z,4292.00
2018-11-14T07:24:41.317Z,4056.00
2018-11-14T07:25:41.198Z,4244.00
2018-11-14T07:26:41.188Z,5080.00
2018-11-14T07:27:41.182Z,4784.00
2018-11-14T07:28:41.170Z,4716.00
2018-11-14T07:29:41.163Z,5204.00
2018-11-14T07:30:41.154Z,5020.00
2018-11-14T07:31:41.144Z,4888.00
2018-11-14T07:32:41.138Z,4460.00
2018-11-14T07:33:41.129Z,5256.00
2018-11-14T07:34:41.125Z,5368.00
2018-11-14T07:35:41.114Z,5328.00
2018-11-14T07:36:41.110Z,5412.00
2018-11-14T07:37:41.123Z,5456.00
2018-11-14T07:38:41.089Z,5312.00
2018-11-14T07:39:41.081Z,5352.00
2018-11-14T07:40:41.072Z,5220.00
2018-11-14T07:41:41.069Z,5284.00
2018-11-14T07:42:41.064Z,5464.00
2018-11-14T07:43:41.152Z,5340.00
2018-11-14T07:44:41.044Z,5160.00
2018-11-14T07:45:41.040Z,5176.00
2018-11-14T07:46:41.030Z,5100.00
2018-11-14T07:47:41.022Z,4516.00
2018-11-14T07:48:41.015Z,5196.00
2018-11-14T07:49:41.007Z,5492.00
2018-11-14T07:50:41.002Z,5396.00
2018-11-14T07:51:40.991Z,5372.00
2018-11-14T07:52:40.985Z,5460.00
2018-11-14T07:53:40.980Z,5764.00
2018-11-14T07:54:41.123Z,5592.00
2018-11-14T07:55:40.964Z,5760.00
2018-11-14T07:56:40.956Z,5200.00
2018-11-14T07:57:40.949Z,5756.00
2018-11-14T07:58:40.942Z,5676.00
2018-11-14T07:59:40.943Z,5624.00
2018-11-14T08:00:40.935Z,5504.00
2018-11-14T08:01:40.924Z,5000.00
2018-11-14T08:02:40.913Z,4940.00
2018-11-14T08:03:40.907Z,5508.00
2018-11-14T08:04:40.904Z,6068.00
2018-11-14T08:05:40.897Z,5852.00
2018-11-14T08:06:40.889Z,6220.00
2018-11-14T08:07:40.943Z,8160.00
2018-11-14T08:08:40.943Z,6408.00
2018-11-14T08:09:40.872Z,8064.00
2018-11-14T08:10:40.859Z,9368.00
2018-11-14T08:11:40.854Z,7448.00
2018-11-14T08:12:40.848Z,8280.00
2018-11-14T08:13:40.846Z,8652.00
2018-11-14T08:14:40.840Z,7176.00
2018-11-14T08:15:40.835Z,7408.00
2018-11-14T08:16:40.825Z,7056.00
2018-11-14T08:17:40.821Z,6764.00
2018-11-14T08:18:40.898Z,7216.00
2018-11-14T08:19:40.810Z,6788.00
2018-11-14T08:20:40.808Z,6180.00
2018-11-14T08:21:40.797Z,6208.00
2018-11-14T08:22:40.796Z,5296.00
2018-11-14T08:23:40.792Z,6828.00
2018-11-14T08:24:40.780Z,7132.00
2018-11-14T08:25:40.766Z,5676.00
2018-11-14T08:26:40.769Z,9036.00
2018-11-14T08:27:40.764Z,12040.00
2018-11-14T08:28:40.756Z,13036.00
2018-11-14T08:29:40.744Z,13356.00
2018-11-14T08:30:40.805Z,13600.00
2018-11-14T08:31:40.740Z,14804.00
2018-11-14T08:32:40.736Z,16544.00
2018-11-14T08:33:40.792Z,18464.00
2018-11-14T08:34:40.727Z,18112.00
2018-11-14T08:35:40.746Z,15208.00
2018-11-14T08:36:40.731Z,15328.00
2018-11-14T08:37:40.711Z,16448.00
2018-11-14T08:38:40.707Z,16832.00
2018-11-14T08:39:40.705Z,18464.00
2018-11-14T08:40:40.700Z,13768.00
2018-11-14T08:41:40.696Z,9428.00
2018-11-14T08:42:40.691Z,8816.00
2018-11-14T08:43:40.688Z,9864.00
2018-11-14T08:44:40.684Z,10972.00
2018-11-14T08:45:40.754Z,8480.00
2018-11-14T08:46:40.681Z,8616.00
2018-11-14T08:47:40.670Z,8604.00
2018-11-14T08:48:40.666Z,8316.00
2018-11-14T08:49:40.661Z,7648.00
2018-11-14T08:50:40.658Z,7704.00
2018-11-14T08:51:40.654Z,8228.00
2018-11-14T08:52:40.654Z,8544.00
2018-11-14T08:53:40.647Z,8956.00
2018-11-14T08:54:40.640Z,8744.00
2018-11-14T08:55:40.638Z,8816.00
2018-11-14T08:56:40.632Z,9772.00
2018-11-14T08:57:40.627Z,9384.00
2018-11-14T08:58:40.622Z,9044.00
2018-11-14T08:59:40.616Z,8700.00
2018-11-14T09:00:40.613Z,8472.00
2018-11-14T09:01:40.618Z,8452.00
2018-11-14T09:02:40.603Z,8560.00
2018-11-14T09:03:40.610Z,8236.00
2018-11-14T09:04:40.594Z,8928.00
2018-11-14T09:05:40.587Z,8304.00
2018-11-14T09:06:40.592Z,8552.00
2018-11-14T09:07:40.632Z,8576.00
2018-11-14T09:08:40.572Z,9600.00
2018-11-14T09:09:40.566Z,11420.00
2018-11-14T09:10:40.561Z,10528.00
2018-11-14T09:11:40.556Z,11788.00
2018-11-14T09:12:40.559Z,11936.00
2018-11-14T09:13:40.546Z,10432.00
2018-11-14T09:14:40.695Z,10584.00
2018-11-14T09:15:40.538Z,11780.00
2018-11-14T09:16:40.534Z,14224.00
2018-11-14T09:17:40.525Z,16632.00
2018-11-14T09:18:40.590Z,12792.00
2018-11-14T09:19:40.519Z,15260.00
2018-11-14T09:20:40.519Z,14980.00
2018-11-14T09:21:40.504Z,15072.00
2018-11-14T09:22:40.501Z,16172.00
2018-11-14T09:23:40.522Z,14844.00
2018-11-14T09:24:40.492Z,16600.00
2018-11-14T09:25:40.481Z,18656.00
2018-11-14T09:26:40.470Z,17504.00
2018-11-14T09:27:40.542Z,16284.00
2018-11-14T09:28:40.470Z,17664.00
2018-11-14T09:29:40.464Z,16216.00
2018-11-14T09:30:40.459Z,12768.00
2018-11-14T09:31:40.451Z,13896.00
2018-11-14T09:32:40.449Z,12788.00
2018-11-14T09:33:40.448Z,10828.00
2018-11-14T09:34:40.448Z,20384.00
2018-11-14T09:35:40.436Z,19040.00
2018-11-14T09:36:40.450Z,14032.00
2018-11-14T09:37:40.430Z,12752.00
2018-11-14T09:38:40.426Z,12096.00
2018-11-14T09:39:40.422Z,11476.00
2018-11-14T09:40:40.449Z,11292.00
2018-11-14T09:41:40.405Z,15180.00
2018-11-14T09:42:40.405Z,15580.00
2018-11-14T09:43:40.437Z,14976.00
2018-11-14T09:44:40.428Z,14436.00
2018-11-14T09:45:40.391Z,12708.00
2018-11-14T09:46:40.387Z,10944.00
2018-11-14T09:47:40.383Z,11732.00
2018-11-14T09:48:40.383Z,12136.00
2018-11-14T09:49:40.380Z,12588.00
2018-11-14T09:50:40.373Z,13252.00
2018-11-14T09:51:40.365Z,14424.00
2018-11-14T09:52:40.358Z,16360.00
2018-11-14T09:53:40.358Z,16612.00
2018-11-14T09:54:40.354Z,16072.00
2018-11-14T09:55:40.345Z,19616.00
2018-11-14T09:56:40.380Z,23264.00
2018-11-14T09:57:40.342Z,21536.00
2018-11-14T09:58:40.388Z,17728.00
2018-11-14T09:59:40.341Z,15168.00
2018-11-14T10:00:40.355Z,14348.00
2018-11-14T10:01:40.322Z,14960.00
2018-11-14T10:02:40.385Z,15316.00
2018-11-14T10:03:40.368Z,14988.00
2018-11-14T10:04:40.310Z,15368.00
2018-11-14T10:05:40.337Z,16100.00
2018-11-14T10:06:40.301Z,15384.00
2018-11-14T10:07:40.305Z,17984.00
2018-11-14T10:08:40.296Z,21696.00
2018-11-14T10:09:40.294Z,26112.00
2018-11-14T10:10:40.291Z,29952.00
2018-11-14T10:11:40.288Z,26848.00
2018-11-14T10:12:40.281Z,23136.00
2018-11-14T10:13:40.280Z,22624.00
2018-11-14T10:14:40.279Z,21856.00
2018-11-14T10:15:40.381Z,19712.00
2018-11-14T10:16:40.271Z,16752.00
2018-11-14T10:17:40.266Z,13972.00
2018-11-14T10:18:40.266Z,11440.00
2018-11-14T10:19:40.263Z,9856.00
2018-11-14T10:20:40.259Z,8928.00
2018-11-14T10:21:40.309Z,10232.00
2018-11-14T10:22:40.254Z,11996.00
2018-11-14T10:23:40.248Z,11392.00
2018-11-14T10:24:40.249Z,11204.00
2018-11-14T10:25:40.244Z,9260.00
2018-11-14T10:26:40.245Z,12144.00
2018-11-14T10:27:40.257Z,15280.00
2018-11-14T10:28:40.235Z,16832.00
2018-11-14T10:29:40.245Z,17952.00
2018-11-14T10:30:40.234Z,17184.00
2018-11-14T10:31:40.277Z,16160.00
2018-11-14T10:32:40.224Z,15848.00
2018-11-14T10:33:40.221Z,15836.00
2018-11-14T10:34:40.214Z,16576.00
2018-11-14T10:35:40.221Z,16080.00
2018-11-14T10:36:40.225Z,12436.00
2018-11-14T10:37:40.214Z,12412.00
2018-11-14T10:38:40.213Z,14272.00
2018-11-14T10:39:40.208Z,17568.00
2018-11-14T10:40:40.200Z,19360.00
2018-11-14T10:41:40.204Z,18848.00
2018-11-14T10:42:40.254Z,17408.00
2018-11-14T10:43:40.198Z,18944.00
2018-11-14T10:44:40.195Z,18944.00
2018-11-14T10:45:40.195Z,18272.00
2018-11-14T10:46:40.192Z,18304.00
2018-11-14T10:47:40.190Z,17504.00
2018-11-14T10:48:40.189Z,16528.00
2018-11-14T10:49:40.191Z,16136.00
2018-11-14T10:50:40.185Z,15364.00
2018-11-14T10:51:40.184Z,14292.00
2018-11-14T10:52:40.180Z,15012.00
2018-11-14T10:53:40.177Z,15932.00
2018-11-14T10:54:40.175Z,15564.00
2018-11-14T10:55:40.172Z,14924.00
2018-11-14T10:56:40.164Z,17472.00
2018-11-14T10:57:40.171Z,18752.00
2018-11-14T10:58:40.156Z,18464.00
2018-11-14T10:59:40.176Z,17344.00
2018-11-14T11:00:40.157Z,16400.00
2018-11-14T11:01:40.157Z,16628.00
2018-11-14T11:02:40.158Z,15100.00
2018-11-14T11:03:40.148Z,15048.00
2018-11-14T11:04:40.157Z,15516.00
2018-11-14T11:05:40.145Z,16088.00
2018-11-14T11:06:40.141Z,15756.00
2018-11-14T11:07:40.135Z,15124.00
2018-11-14T11:08:40.205Z,15848.00
2018-11-14T11:09:40.130Z,16508.00
2018-11-14T11:10:40.128Z,16488.00
2018-11-14T11:11:40.125Z,16296.00
2018-11-14T11:12:40.122Z,16140.00
2018-11-14T11:13:40.140Z,15964.00
2018-11-14T11:14:40.114Z,16064.00
2018-11-14T11:15:40.103Z,14728.00
2018-11-14T11:16:40.105Z,13960.00
2018-11-14T11:17:40.101Z,13724.00
2018-11-14T11:18:40.096Z,13832.00
2018-11-14T11:19:40.097Z,13476.00
2018-11-14T11:20:40.096Z,13928.00
2018-11-14T11:21:40.089Z,14304.00
2018-11-14T11:22:40.090Z,15280.00
2018-11-14T11:23:40.193Z,16656.00
2018-11-14T11:24:40.078Z,16260.00
2018-11-14T11:25:40.074Z,15504.00
2018-11-14T11:26:40.074Z,15088.00
2018-11-14T11:27:40.066Z,15124.00
2018-11-14T11:28:40.062Z,15892.00
2018-11-14T11:29:40.061Z,16040.00
2018-11-14T11:30:40.137Z,15964.00
2018-11-14T11:31:40.054Z,16344.00
2018-11-14T11:32:40.049Z,16992.00
2018-11-14T11:33:40.045Z,17696.00
2018-11-14T11:34:40.041Z,17216.00
2018-11-14T11:35:40.037Z,16460.00
2018-11-14T11:36:40.035Z,16372.00
2018-11-14T11:37:40.037Z,16384.00
2018-11-14T11:38:40.027Z,16404.00
2018-11-14T11:39:40.023Z,15984.00
2018-11-14T11:40:40.020Z,15364.00
2018-11-14T11:41:40.016Z,15208.00
2018-11-14T11:42:40.003Z,15444.00
2018-11-14T11:43:40.010Z,14952.00
2018-11-14T11:44:40.005Z,14364.00
2018-11-14T11:45:40.000Z,14052.00
2018-11-14T11:46:39.998Z,14088.00
2018-11-14T11:47:39.994Z,13744.00
2018-11-14T11:48:39.995Z,13264.00
2018-11-14T11:49:39.992Z,12776.00
2018-11-14T11:50:39.985Z,12512.00
2018-11-14T11:51:39.980Z,11880.00
2018-11-14T11:52:39.979Z,11424.00
2018-11-14T11:53:39.973Z,12604.00
2018-11-14T11:54:39.969Z,13984.00
2018-11-14T11:55:39.964Z,13348.00
2018-11-14T11:56:39.952Z,12672.00
2018-11-14T11:57:40.068Z,12772.00
2018-11-14T11:58:39.947Z,13368.00
2018-11-14T11:59:39.992Z,13796.00
2018-11-14T12:00:40.185Z,13568.00
2018-11-14T12:01:39.951Z,12348.00
2018-11-14T12:02:39.939Z,12580.00
2018-11-14T12:03:39.931Z,12396.00
2018-11-14T12:04:39.928Z,11888.00
2018-11-14T12:05:39.929Z,11676.00
2018-11-14T12:06:39.924Z,12032.00
2018-11-14T12:07:39.913Z,11840.00
2018-11-14T12:08:39.914Z,12228.00
2018-11-14T12:09:39.910Z,12168.00
2018-11-14T12:10:39.935Z,11972.00
2018-11-14T12:11:39.894Z,11264.00
2018-11-14T12:12:39.894Z,11732.00
2018-11-14T12:13:39.902Z,12280.00
2018-11-14T12:14:39.887Z,13260.00
2018-11-14T12:15:39.883Z,12968.00
2018-11-14T12:16:39.883Z,11920.00
2018-11-14T12:17:39.897Z,11096.00
2018-11-14T12:18:39.875Z,10656.00
2018-11-14T12:19:39.867Z,12424.00
2018-11-14T12:20:39.861Z,13480.00
2018-11-14T12:21:39.857Z,12224.00
2018-11-14T12:22:39.845Z,11912.00
2018-11-14T12:23:39.880Z,11448.00
2018-11-14T12:24:39.847Z,11052.00
2018-11-14T12:25:39.841Z,9260.00
2018-11-14T12:26:39.836Z,9188.00
2018-11-14T12:27:39.883Z,10376.00
2018-11-14T12:28:39.826Z,11168.00
2018-11-14T12:29:39.824Z,11708.00
2018-11-14T12:30:39.903Z,12556.00
2018-11-14T12:31:39.813Z,12692.00
2018-11-14T12:32:39.807Z,13104.00
2018-11-14T12:33:39.804Z,12544.00